• Join FlightAware (Why Join?)
  • Login
  • US Flag 
Rudolph Flight #1: Arrived! 
03:02AM EST


 

Airport Tracker/Info


-or-


 

Live Flight TrackerFlight Track Log ✈ AMF9315 ✈ 29-Jun-2013 ✈ KHSV - KMQY

Flight Track Log - Related Links

Times and Time Zones

All times are in EDT time to prevent confusion due to time zone crossing. See the AMF9315 flight status page for this flight to view local times or setup timezone preferences in your user account.

Time Position Orientation Groundspeed Altitude Reporting Facility
EDT Latitude Longitude Course Direction KTS MPH feet Rate Location/Type
07:26AM 35.0383 -86.6086 North 273 314 7,000  Level Memphis Center
07:27AM 35.0636 -86.6967 North  Level Estimated
07:27AM 35.1183 -86.5694 22° Northeast 268 308 7,000  Level Memphis Center
07:28AM 35.1246 -86.6855 North  Level Estimated
07:28AM 35.1903 -86.5358 21° North 268 308 7,000  Level Memphis Center
07:29AM 35.1855 -86.6742 North  Level Estimated
07:29AM 35.2606 -86.5097 17° North 268 308 7,000  Level Memphis Center
07:30AM 35.2464 -86.6629 North  Level Estimated
07:30AM 35.3350 -86.4883 13° North 268 308 7,000  Level Memphis Center
07:31AM 35.3073 -86.6516 North  Level Estimated
07:31AM 35.4075 -86.4747 North 268 308 6,500  Level Memphis Center
07:32AM 35.3682 -86.6403 North  Level Estimated
07:32AM 35.4678 -86.4644 North 252 290 6,000  Level Memphis Center
07:33AM 35.5361 -86.4508 North 245 282 6,000  Level Memphis Center
07:34AM 35.6019 -86.4197 21° North 245 282 6,000 -180 Level Memphis Center
07:35AM 35.6719 -86.3961 15° North 245 282 5,700 -900 Descending Memphis Center
07:36AM 35.7425 -86.3850 North 250 288 4,200 -1,200 Descending Memphis Center
07:37AM 35.8128 -86.3689 11° North 257 296 3,400 1,380 Descending Memphis Center
07:38AM 35.8853 -86.3525 10° North 257 296 7,000 1,800 Climbing Memphis Center
07:39AM 35.9578 -86.3361 10° North 257 296 7,000  Level Memphis Center
07:40AM 36.0303 -86.3197 10° North 257 296 7,000  Level Memphis Center
07:41AM 36.0736 -86.3097 11° North 257 296 7,000  Level Memphis Center
07:42AM 36.0736 -86.3097 302° West 257 296 7,000  Level Memphis Center
07:44AM 36.0736 -86.3097 302° West 257 296 7,000  Level Memphis Center
07:46AM 36.0736 -86.3097 302° West 257 296 7,000  Level Memphis Center
07:48AM 36.0382 -86.4095 246° West  Level FlightAware Approximate
07:55AM 36.0000 -86.5167 249° West  Level FlightAware Approximate
07:56AM 36.0090 -86.5201 249° West  Level Estimated
07:57AM 36.0090 -86.5201 249° West  Level Estimated
07:58AM 36.0090 -86.5201 249° West  Level Estimated
07:59AM 36.0090 -86.5201 249° West  Level Estimated